Time;durP1;ratioP1;P1;durP2;ratioP2;P2;SDS_P1;SDS_P2;PMS_P1;PMS_P2;Temp;Humidity;BMP_temperature;BMP_pressure;BME280_temperature;BME280_humidity;BME280_pressure;Samples;Min_cycle;Max_cycle;Signal;HPM_P1;HPM_P2
2021/01/02 00:00:48;;;;;;;53.67;47.72;;;20.20;36.50;;;;;;5055554;28;20025;-59
2021/01/02 00:03:17;;;;;;;50.15;44.22;;;20.20;36.50;;;;;;5050180;28;20061;-61
2021/01/02 00:05:51;;;;;;;49.72;43.58;;;20.10;37.20;;;;;;5053405;28;20068;-59
2021/01/02 00:08:20;;;;;;;50.83;43.75;;;20.10;36.60;;;;;;5060170;28;20053;-60
2021/01/02 00:10:57;;;;;;;47.75;41.38;;;20.10;36.60;;;;;;5051548;28;20036;-60
2021/01/02 00:13:51;;;;;;;47.78;41.90;;;20.10;36.70;;;;;;5049126;28;20029;-59
2021/01/02 00:16:29;;;;;;;43.78;37.58;;;20.00;36.70;;;;;;5055744;28;20085;-61
2021/01/02 00:19:04;;;;;;;43.17;38.47;;;20.00;36.60;;;;;;5051573;28;20387;-60
2021/01/02 00:21:47;;;;;;;44.13;38.38;;;20.00;36.70;;;;;;5057129;28;20120;-59
2021/01/02 00:24:38;;;;;;;50.70;44.97;;;20.00;36.80;;;;;;5055153;28;20090;-60
2021/01/02 00:27:12;;;;;;;43.53;38.67;;;19.90;36.60;;;;;;5050874;28;20029;-59
2021/01/02 00:29:50;;;;;;;40.53;35.00;;;19.90;36.70;;;;;;5064681;28;20067;-59
2021/01/02 00:32:40;;;;;;;38.85;34.03;;;19.90;36.70;;;;;;5057087;28;20063;-60
2021/01/02 00:35:19;;;;;;;50.17;40.67;;;19.90;36.80;;;;;;5059621;28;20049;-59
2021/01/02 00:37:55;;;;;;;45.83;40.80;;;19.90;36.80;;;;;;5032522;28;20462;-60
2021/01/02 00:40:23;;;;;;;51.42;43.97;;;19.90;36.80;;;;;;5050000;28;20513;-59
2021/01/02 00:42:49;;;;;;;48.20;43.03;;;19.80;36.70;;;;;;5048649;28;20358;-60
2021/01/02 00:45:20;;;;;;;50.05;42.25;;;19.80;36.80;;;;;;5057776;28;20028;-60
2021/01/02 00:47:46;;;;;;;43.75;38.90;;;19.80;36.90;;;;;;5049183;28;20027;-60
2021/01/02 00:50:13;;;;;;;43.90;38.95;;;19.90;36.90;;;;;;5060377;28;20085;-59
2021/01/02 00:52:46;;;;;;;41.47;36.42;;;19.80;36.90;;;;;;5056391;28;20043;-60
2021/01/02 00:55:25;;;;;;;39.38;35.15;;;19.80;36.90;;;;;;5068067;28;20119;-59
2021/01/02 00:58:12;;;;;;;42.00;36.78;;;19.80;36.90;;;;;;5051639;28;20104;-60
2021/01/02 01:00:44;;;;;;;43.05;37.45;;;19.80;36.90;;;;;;5047909;28;20109;-59
2021/01/02 01:03:19;;;;;;;41.53;35.67;;;19.80;36.90;;;;;;5050691;28;20029;-60
2021/01/02 01:05:48;;;;;;;37.00;32.65;;;19.80;37.00;;;;;;5058634;28;20507;-59
2021/01/02 01:08:16;;;;;;;34.20;30.25;;;19.80;37.00;;;;;;5054936;28;20498;-60
2021/01/02 01:10:43;;;;;;;36.03;32.00;;;19.80;36.90;;;;;;5058515;28;20057;-60
2021/01/02 01:13:20;;;;;;;31.73;28.02;;;19.80;36.90;;;;;;5056260;28;20037;-59
2021/01/02 01:15:46;;;;;;;34.50;29.67;;;19.70;36.90;;;;;;5053375;28;20375;-60
2021/01/02 01:18:18;;;;;;;32.13;28.65;;;19.70;36.90;;;;;;5054539;28;20051;-60
2021/01/02 01:20:55;;;;;;;30.08;26.70;;;19.70;36.90;;;;;;5056525;28;20036;-59
2021/01/02 01:23:27;;;;;;;31.00;27.25;;;19.70;36.90;;;;;;5057199;28;20071;-59
2021/01/02 01:26:16;;;;;;;32.03;27.27;;;19.70;37.50;;;;;;5053851;28;20029;-59
2021/01/02 01:28:47;;;;;;;29.37;26.07;;;19.70;36.90;;;;;;5045010;28;20602;-60
2021/01/02 01:31:18;;;;;;;28.92;25.35;;;19.70;37.00;;;;;;5056913;28;20057;-59
2021/01/02 01:33:49;;;;;;;29.00;25.38;;;19.70;36.90;;;;;;5056192;28;20378;-60
2021/01/02 01:36:17;;;;;;;28.95;25.73;;;19.70;37.00;;;;;;5052824;28;20056;-60
2021/01/02 01:38:53;;;;;;;28.90;24.90;;;19.70;37.00;;;;;;5057137;28;20523;-59
2021/01/02 01:41:34;;;;;;;26.23;23.45;;;19.60;37.00;;;;;;5053692;28;20375;-60
2021/01/02 01:44:34;;;;;;;24.52;21.98;;;19.70;37.10;;;;;;5057699;28;20475;-59
2021/01/02 01:47:15;;;;;;;26.20;23.17;;;19.60;37.00;;;;;;5055358;28;20486;-60
2021/01/02 01:49:47;;;;;;;24.67;21.10;;;19.70;37.10;;;;;;5055975;28;20029;-60
2021/01/02 01:52:34;;;;;;;25.15;22.45;;;19.70;37.00;;;;;;5054414;28;20078;-60
2021/01/02 01:55:13;;;;;;;22.50;19.95;;;19.70;37.00;;;;;;5051179;28;20041;-60
2021/01/02 01:57:40;;;;;;;24.83;21.92;;;19.60;37.10;;;;;;5059175;28;20560;-60
2021/01/02 02:00:10;;;;;;;26.50;21.70;;;19.60;37.10;;;;;;5055240;28;20029;-59
2021/01/02 02:02:44;;;;;;;22.08;19.13;;;19.60;37.20;;;;;;5055607;28;20064;-59
2021/01/02 02:05:19;;;;;;;21.45;19.15;;;19.60;37.10;;;;;;5054672;28;20032;-59
2021/01/02 02:08:05;;;;;;;20.63;18.33;;;19.60;37.10;;;;;;5057233;28;20089;-60
2021/01/02 02:10:43;;;;;;;19.67;16.95;;;19.60;37.10;;;;;;5055796;28;20036;-60
2021/01/02 02:13:15;;;;;;;16.83;15.02;;;19.60;37.20;;;;;;5055135;28;20032;-60
2021/01/02 02:15:58;;;;;;;18.50;16.70;;;19.60;37.20;;;;;;5054031;28;20060;-60
2021/01/02 02:18:34;;;;;;;19.23;17.17;;;19.50;37.20;;;;;;5051867;28;20487;-60
2021/01/02 02:21:01;;;;;;;17.65;15.68;;;19.60;37.20;;;;;;5055780;28;20025;-60
2021/01/02 02:23:51;;;;;;;19.38;16.83;;;19.50;37.20;;;;;;5051712;28;20082;-60
2021/01/02 02:26:31;;;;;;;16.85;15.07;;;19.50;37.30;;;;;;5038274;28;20036;-60
2021/01/02 02:28:57;;;;;;;18.02;15.02;;;19.50;37.20;;;;;;5054766;28;20056;-59
2021/01/02 02:31:23;;;;;;;16.80;14.85;;;19.50;37.20;;;;;;5056709;28;20517;-59
2021/01/02 02:33:56;;;;;;;15.32;13.75;;;19.50;37.30;;;;;;5056344;28;20044;-59
2021/01/02 02:36:24;;;;;;;17.17;14.50;;;19.50;37.40;;;;;;5056099;28;20534;-59
2021/01/02 02:38:52;;;;;;;17.08;15.15;;;19.50;37.40;;;;;;5053661;28;20086;-59
2021/01/02 02:41:22;;;;;;;15.80;14.10;;;19.50;37.40;;;;;;5052428;28;20078;-59
2021/01/02 02:43:52;;;;;;;16.50;14.75;;;19.40;37.40;;;;;;5054155;28;20037;-59
2021/01/02 02:46:19;;;;;;;;;;;19.40;37.50;;;;;;5054904;28;20139;-59
2021/01/02 02:48:48;;;;;;;15.13;12.95;;;19.50;37.20;;;;;;5054454;28;19908;-59
2021/01/02 02:51:19;;;;;;;15.70;13.20;;;19.50;37.40;;;;;;5053121;28;20679;-60
2021/01/02 02:53:48;;;;;;;13.98;12.07;;;19.50;38.10;;;;;;5056054;28;20417;-59
2021/01/02 02:56:14;;;;;;;14.35;12.85;;;19.50;37.50;;;;;;5053266;28;20033;-59
2021/01/02 02:58:40;;;;;;;12.73;11.32;;;19.40;37.50;;;;;;5054380;28;20029;-60
2021/01/02 03:01:06;;;;;;;13.32;11.90;;;19.40;37.60;;;;;;5050831;28;20032;-60
2021/01/02 03:03:32;;;;;;;12.38;11.02;;;19.40;37.50;;;;;;5054774;28;20052;-60
2021/01/02 03:05:59;;;;;;;13.02;11.35;;;19.40;37.60;;;;;;5051881;28;20025;-59
2021/01/02 03:08:26;;;;;;;12.48;11.20;;;19.40;37.60;;;;;;5055348;28;20094;-60
2021/01/02 03:10:54;;;;;;;12.45;11.15;;;19.40;37.70;;;;;;5055152;28;20025;-59
2021/01/02 03:13:20;;;;;;;12.25;10.48;;;19.40;37.70;;;;;;5052990;28;20025;-60
2021/01/02 03:15:46;;;;;;;11.45;10.25;;;19.40;37.70;;;;;;5055513;28;20387;-60
2021/01/02 03:18:12;;;;;;;10.38;9.27;;;19.40;37.70;;;;;;5054408;28;20098;-60
2021/01/02 03:20:38;;;;;;;10.10;9.10;;;19.40;37.70;;;;;;5053508;28;20025;-60
2021/01/02 03:23:05;;;;;;;10.45;9.35;;;19.30;37.70;;;;;;5061569;28;20025;-60
2021/01/02 03:25:31;;;;;;;10.27;9.27;;;19.30;37.70;;;;;;5053962;28;20029;-59
2021/01/02 03:27:58;;;;;;;11.65;9.52;;;19.30;37.70;;;;;;5052838;28;20019;-59
2021/01/02 03:30:27;;;;;;;8.85;7.88;;;19.30;37.80;;;;;;5053966;28;20498;-59
2021/01/02 03:32:54;;;;;;;9.57;8.57;;;19.30;37.80;;;;;;5052363;28;20695;-59
2021/01/02 03:35:20;;;;;;;9.25;8.23;;;19.30;37.80;;;;;;5054975;28;20040;-60
2021/01/02 03:37:47;;;;;;;9.85;8.77;;;19.30;37.80;;;;;;5053649;28;20029;-59
2021/01/02 03:40:15;;;;;;;9.55;8.55;;;19.30;37.80;;;;;;5052061;28;20024;-59
2021/01/02 03:42:46;;;;;;;9.52;8.05;;;19.30;37.80;;;;;;5051594;28;20133;-59
2021/01/02 03:45:14;;;;;;;8.63;7.78;;;19.20;37.90;;;;;;5055271;28;20068;-60
2021/01/02 03:47:46;;;;;;;9.88;7.90;;;19.30;37.90;;;;;;5051518;28;20021;-59
2021/01/02 03:50:13;;;;;;;8.38;7.47;;;19.20;38.00;;;;;;5059441;28;20036;-60
2021/01/02 03:52:39;;;;;;;7.70;6.82;;;19.20;37.90;;;;;;5056581;28;20025;-59
2021/01/02 03:55:08;;;;;;;8.52;6.85;;;19.20;37.90;;;;;;5057954;28;20029;-59
2021/01/02 03:57:34;;;;;;;8.60;7.57;;;19.20;38.00;;;;;;5051852;28;20029;-59
2021/01/02 04:00:00;;;;;;;7.30;6.53;;;19.20;38.00;;;;;;5055319;28;20029;-59
2021/01/02 04:02:27;;;;;;;7.78;6.38;;;19.20;38.00;;;;;;5056082;28;20025;-60
2021/01/02 04:04:53;;;;;;;10.23;7.20;;;19.20;38.00;;;;;;5054669;28;20020;-59
2021/01/02 04:07:20;;;;;;;8.63;6.93;;;19.20;38.10;;;;;;5061546;28;20056;-59
2021/01/02 04:09:46;;;;;;;7.63;6.38;;;19.10;38.00;;;;;;5054612;28;20497;-59
2021/01/02 04:12:12;;;;;;;7.13;6.43;;;19.10;38.10;;;;;;5057286;28;20060;-59
2021/01/02 04:14:38;;;;;;;8.05;7.15;;;19.20;38.20;;;;;;5055507;28;20021;-59
2021/01/02 04:17:04;;;;;;;6.80;5.97;;;19.20;38.20;;;;;;5057018;28;20025;-59
2021/01/02 04:19:34;;;;;;;6.35;5.85;;;19.10;38.10;;;;;;5056478;28;20020;-59
2021/01/02 04:22:00;;;;;;;6.57;5.80;;;19.20;38.20;;;;;;5053625;28;20025;-59
2021/01/02 04:24:29;;;;;;;5.90;5.30;;;19.10;38.20;;;;;;5058261;28;20057;-59
2021/01/02 04:27:02;;;;;;;6.65;5.35;;;19.10;38.20;;;;;;5053784;28;20064;-60
2021/01/02 04:29:28;;;;;;;6.63;5.32;;;19.10;38.20;;;;;;5057553;28;20061;-59
2021/01/02 04:31:56;;;;;;;6.53;5.15;;;19.10;38.20;;;;;;5055950;28;20132;-60
2021/01/02 04:34:22;;;;;;;5.30;4.80;;;19.10;38.10;;;;;;5058696;28;20513;-66
2021/01/02 04:36:49;;;;;;;5.43;4.93;;;19.10;38.20;;;;;;5053525;28;20025;-66
2021/01/02 04:39:15;;;;;;;6.88;5.72;;;19.10;38.80;;;;;;5054623;28;20124;-66
2021/01/02 04:41:42;;;;;;;5.75;5.05;;;19.10;38.20;;;;;;5057314;28;20040;-66
2021/01/02 04:44:08;;;;;;;5.38;4.35;;;19.10;38.20;;;;;;5051957;28;20060;-66
2021/01/02 04:46:37;;;;;;;4.78;4.28;;;19.10;38.20;;;;;;5057676;28;20047;-66
2021/01/02 04:49:05;;;;;;;5.70;4.55;;;19.00;38.10;;;;;;5055303;28;20082;-66
2021/01/02 04:51:31;;;;;;;6.10;5.28;;;19.00;38.20;;;;;;5053576;28;20033;-66
2021/01/02 04:54:05;;;;;;;5.20;4.50;;;19.00;38.10;;;;;;5060169;28;20383;-66
2021/01/02 04:56:38;;;;;;;4.45;3.70;;;19.00;38.20;;;;;;5053383;28;20573;-66
2021/01/02 04:59:11;;;;;;;3.90;3.50;;;19.00;38.20;;;;;;5058823;28;20036;-66
2021/01/02 05:01:41;;;;;;;4.30;3.78;;;19.00;38.10;;;;;;5055324;28;20117;-66
2021/01/02 05:04:10;;;;;;;5.40;3.78;;;19.00;38.10;;;;;;5056571;28;20025;-66
2021/01/02 05:06:36;;;;;;;4.57;3.45;;;18.90;38.10;;;;;;5053939;28;20379;-66
2021/01/02 05:09:05;;;;;;;3.53;3.22;;;18.90;38.00;;;;;;5056574;28;20053;-66
2021/01/02 05:11:39;;;;;;;4.38;3.45;;;19.00;38.10;;;;;;5057266;28;20382;-66
2021/01/02 05:14:06;;;;;;;3.33;2.75;;;18.90;38.10;;;;;;5054450;28;20021;-65
2021/01/02 05:16:37;;;;;;;4.95;3.15;;;18.90;38.10;;;;;;5056191;28;20025;-66
2021/01/02 05:19:21;;;;;;;4.22;3.00;;;18.90;38.10;;;;;;5054465;28;20048;-67
2021/01/02 05:21:48;;;;;;;3.50;3.15;;;18.90;38.10;;;;;;5056263;28;20044;-66
2021/01/02 05:24:15;;;;;;;3.53;2.88;;;18.90;38.00;;;;;;5054018;28;20025;-66
2021/01/02 05:26:44;;;;;;;3.17;2.88;;;18.90;38.00;;;;;;5057485;28;20024;-66
2021/01/02 05:29:43;;;;;;;3.28;2.83;;;18.90;38.10;;;;;;5054261;28;20068;-66
2021/01/02 05:32:09;;;;;;;2.88;2.50;;;18.90;38.10;;;;;;5011788;28;20045;-66
2021/01/02 05:34:35;;;;;;;3.60;3.08;;;18.90;38.00;;;;;;5029980;28;20477;-66
2021/01/02 05:37:06;;;;;;;2.72;2.40;;;18.80;38.00;;;;;;5032142;28;20491;-66
2021/01/02 05:39:40;;;;;;;3.70;2.92;;;18.80;38.00;;;;;;5031497;28;20057;-66
2021/01/02 05:42:07;;;;;;;3.05;2.15;;;18.80;38.10;;;;;;5032443;28;20124;-66
2021/01/02 05:44:35;;;;;;;3.35;2.40;;;18.80;38.00;;;;;;5031565;28;20025;-67
2021/01/02 05:47:02;;;;;;;2.22;2.03;;;18.80;38.00;;;;;;5028138;28;20044;-66
2021/01/02 05:49:38;;;;;;;4.28;2.55;;;18.80;38.00;;;;;;5008986;28;20040;-67
2021/01/02 05:52:09;;;;;;;2.30;2.10;;;18.80;38.10;;;;;;5030299;28;20294;-67
2021/01/02 05:54:40;;;;;;;2.90;2.30;;;18.80;38.10;;;;;;5032097;28;20175;-68
2021/01/02 05:57:07;;;;;;;3.00;2.38;;;18.80;38.10;;;;;;5030375;28;20041;-67
2021/01/02 05:59:38;;;;;;;2.47;2.10;;;18.70;38.00;;;;;;5031745;28;20839;-67
2021/01/02 06:02:29;;;;;;;2.60;1.98;;;18.70;38.00;;;;;;5031475;28;20146;-67
2021/01/02 06:05:00;;;;;;;3.40;1.98;;;18.70;38.00;;;;;;5030465;28;20034;-67
2021/01/02 06:07:28;;;;;;;2.95;2.38;;;18.70;38.00;;;;;;5028084;28;20076;-67
2021/01/02 06:09:54;;;;;;;1.80;1.70;;;18.70;38.00;;;;;;5055611;28;20094;-67
2021/01/02 06:12:30;;;;;;;1.98;1.75;;;18.70;38.00;;;;;;5057179;28;20076;-66
2021/01/02 06:14:59;;;;;;;3.25;2.03;;;18.70;38.10;;;;;;5052240;28;20525;-67
2021/01/02 06:17:35;;;;;;;2.10;1.70;;;18.70;38.00;;;;;;5058744;28;20070;-66
2021/01/02 06:20:09;;;;;;;2.75;1.80;;;18.60;38.00;;;;;;5053624;28;20091;-66
2021/01/02 06:22:36;;;;;;;2.00;1.73;;;18.60;38.00;;;;;;5050122;28;20064;-67
2021/01/02 06:25:05;;;;;;;2.28;1.77;;;18.60;37.90;;;;;;5055621;28;20062;-67
2021/01/02 06:27:33;;;;;;;1.60;1.40;;;18.60;38.00;;;;;;5057445;28;20021;-67
2021/01/02 06:30:00;;;;;;;1.40;1.30;;;18.60;37.90;;;;;;5053758;28;20040;-66
2021/01/02 06:32:27;;;;;;;1.90;1.50;;;18.60;37.90;;;;;;5053549;28;20849;-67
2021/01/02 06:35:08;;;;;;;1.88;1.63;;;18.60;37.90;;;;;;5055781;28;20861;-67
2021/01/02 06:37:49;;;;;;;2.00;1.70;;;18.60;38.00;;;;;;5055299;28;20031;-67
2021/01/02 06:40:25;;;;;;;2.05;1.52;;;18.60;37.90;;;;;;5077140;28;20037;-67
2021/01/02 06:42:55;;;;;;;1.30;1.20;;;18.50;37.90;;;;;;5055785;28;20332;-67
2021/01/02 06:45:39;;;;;;;2.17;1.60;;;18.50;38.00;;;;;;5054161;28;20492;-67
2021/01/02 06:48:17;;;;;;;2.85;1.42;;;18.50;37.90;;;;;;5051597;28;20081;-66
2021/01/02 06:50:47;;;;;;;1.73;1.40;;;18.50;38.00;;;;;;5053024;28;20029;-67
2021/01/02 06:53:30;;;;;;;1.33;1.00;;;18.50;37.90;;;;;;5054911;28;20029;-67
2021/01/02 06:56:06;;;;;;;1.67;1.52;;;18.50;37.90;;;;;;5051340;28;20699;-67
2021/01/02 06:58:46;;;;;;;2.28;1.40;;;18.50;37.90;;;;;;5052266;28;20017;-67
2021/01/02 07:01:15;;;;;;;1.33;1.23;;;18.50;38.00;;;;;;5054556;28;20021;-67
2021/01/02 07:03:43;;;;;;;1.75;1.50;;;18.50;38.00;;;;;;5052518;28;20040;-68
2021/01/02 07:08:57;;;;;;;1.88;1.38;;;18.50;38.10;;;;;;5048297;28;20052;-68
2021/01/02 07:11:23;;;;;;;1.45;1.30;;;18.50;38.10;;;;;;5055412;28;20112;-67
2021/01/02 07:14:17;;;;;;;2.08;1.00;;;18.50;38.10;;;;;;5052693;28;20513;-67
2021/01/02 07:17:06;;;;;;;2.08;1.40;;;18.50;38.20;;;;;;5055774;28;20045;-67
2021/01/02 07:19:40;;;;;;;1.88;1.33;;;18.40;38.10;;;;;;5052167;28;20035;-67
2021/01/02 07:22:21;;;;;;;2.13;1.60;;;18.40;38.10;;;;;;5050632;28;20040;-66
2021/01/02 07:24:48;;;;;;;;;;;18.40;38.20;;;;;;5062256;28;20364;-66
2021/01/02 07:27:18;;;;;;;1.25;1.15;;;18.40;38.10;;;;;;5054024;28;19955;-66
2021/01/02 07:29:45;;;;;;;1.45;0.90;;;18.50;38.00;;;;;;5053809;28;20024;-67
2021/01/02 07:32:31;;;;;;;1.33;1.15;;;18.40;38.00;;;;;;5052598;28;20467;-66
2021/01/02 07:35:08;;;;;;;4.15;1.67;;;18.50;38.10;;;;;;5050592;28;20087;-66
2021/01/02 07:37:37;;;;;;;3.53;1.27;;;18.40;38.20;;;;;;5058006;28;20029;-68
2021/01/02 07:40:06;;;;;;;1.80;1.15;;;18.40;38.10;;;;;;5052295;28;20014;-67
2021/01/02 07:42:53;;;;;;;1.38;1.10;;;18.40;38.20;;;;;;5053648;28;20036;-68
2021/01/02 07:45:25;;;;;;;1.50;1.20;;;18.40;38.20;;;;;;5051825;28;20021;-69
2021/01/02 07:47:53;;;;;;;2.10;1.30;;;18.40;38.20;;;;;;5052239;28;20501;-66
2021/01/02 07:50:27;;;;;;;1.27;1.13;;;18.40;38.20;;;;;;5053166;28;20471;-67
2021/01/02 07:52:54;;;;;;;1.35;1.10;;;18.40;38.20;;;;;;5053742;28;20036;-66
2021/01/02 07:55:32;;;;;;;2.45;1.40;;;18.40;38.20;;;;;;5052716;28;20546;-67
2021/01/02 07:57:58;;;;;;;1.30;1.20;;;18.40;38.20;;;;;;5058863;28;20390;-66
2021/01/02 08:00:25;;;;;;;2.55;1.13;;;18.40;38.20;;;;;;5054233;28;20037;-67
2021/01/02 08:02:52;;;;;;;1.40;1.30;;;18.40;38.70;;;;;;5052321;28;20041;-66
2021/01/02 08:05:22;;;;;;;2.03;1.27;;;18.40;38.10;;;;;;5050864;28;20074;-66
2021/01/02 08:07:55;;;;;;;3.67;1.08;;;18.40;38.20;;;;;;5053318;28;20489;-66
2021/01/02 08:10:21;;;;;;;2.03;1.42;;;18.40;38.10;;;;;;5050320;28;20064;-64
2021/01/02 08:12:49;;;;;;;1.65;1.27;;;18.40;38.10;;;;;;5032404;28;20501;-66
2021/01/02 08:15:25;;;;;;;2.90;1.40;;;18.40;38.10;;;;;;5055328;28;20031;-67
2021/01/02 08:17:51;;;;;;;1.98;1.42;;;18.40;38.10;;;;;;5054462;28;20490;-67
2021/01/02 08:20:17;;;;;;;2.95;1.38;;;18.40;38.10;;;;;;5053536;28;20063;-67
2021/01/02 08:22:43;;;;;;;2.30;1.20;;;18.40;38.00;;;;;;5053218;28;20502;-67
2021/01/02 08:25:16;;;;;;;2.10;1.52;;;18.40;38.00;;;;;;5055157;28;20171;-66
2021/01/02 08:27:44;;;;;;;2.97;1.77;;;18.40;38.20;;;;;;5054269;28;20025;-66
2021/01/02 08:30:12;;;;;;;1.50;1.35;;;18.30;38.10;;;;;;5052625;28;20115;-66
2021/01/02 08:32:45;;;;;;;4.53;1.70;;;18.30;38.00;;;;;;5048825;28;20475;-66
2021/01/02 08:35:34;;;;;;;3.40;1.42;;;18.40;38.10;;;;;;5060115;28;20028;-68
2021/01/02 08:38:18;;;;;;;4.03;1.63;;;18.40;38.10;;;;;;5042852;28;20068;-66
2021/01/02 08:40:49;;;;;;;4.68;2.17;;;18.40;37.70;;;;;;5050918;28;20056;-67
2021/01/02 08:43:22;;;;;;;5.65;5.15;;;18.40;37.80;;;;;;5056220;28;20029;-66
2021/01/02 08:45:48;;;;;;;9.88;8.10;;;18.40;37.90;;;;;;5051031;28;20021;-66
2021/01/02 08:48:16;;;;;;;6.85;6.15;;;18.40;37.90;;;;;;5051846;28;20026;-64
2021/01/02 08:50:42;;;;;;;7.95;6.05;;;18.40;37.90;;;;;;5052518;28;20071;-63
2021/01/02 08:53:32;;;;;;;9.98;8.40;;;18.40;37.80;;;;;;5055685;28;20035;-64
2021/01/02 08:55:58;;;;;;;7.75;6.95;;;18.40;38.60;;;;;;5052454;28;20033;-63
2021/01/02 08:58:34;;;;;;;6.32;5.68;;;18.40;37.50;;;;;;5032662;28;20075;-63
2021/01/02 09:01:01;;;;;;;7.63;6.93;;;18.40;37.50;;;;;;5057838;28;20029;-63
2021/01/02 09:03:27;;;;;;;10.82;8.65;;;18.40;37.60;;;;;;5064306;28;20035;-63
2021/01/02 09:05:53;;;;;;;12.68;10.98;;;18.40;37.60;;;;;;5054244;28;20021;-64
2021/01/02 09:08:20;;;;;;;25.92;15.60;;;18.40;37.70;;;;;;5056080;28;20051;-61
2021/01/02 09:10:55;;;;;;;21.45;17.55;;;18.50;37.70;;;;;;5053608;28;20036;-61
2021/01/02 09:13:24;;;;;;;21.23;17.33;;;18.40;37.80;;;;;;5053128;28;20037;-61
2021/01/02 09:15:59;;;;;;;25.58;17.20;;;18.50;37.90;;;;;;5053845;28;20111;-60
2021/01/02 09:18:31;;;;;;;22.35;16.00;;;18.50;38.00;;;;;;5054371;28;20060;-60
2021/01/02 09:21:10;;;;;;;21.50;15.32;;;18.50;38.60;;;;;;5050590;28;20509;-61
2021/01/02 09:23:37;;;;;;;21.38;14.23;;;18.50;38.00;;;;;;5054553;28;20026;-61
2021/01/02 09:26:16;;;;;;;16.90;13.57;;;18.50;38.00;;;;;;5050511;28;20037;-61
2021/01/02 09:28:43;;;;;;;16.67;13.93;;;18.60;38.00;;;;;;5044722;28;20025;-60
2021/01/02 09:31:09;;;;;;;13.98;11.98;;;18.60;38.00;;;;;;5050378;28;20489;-60
2021/01/02 09:33:35;;;;;;;15.48;11.98;;;18.60;37.90;;;;;;5054223;28;20159;-60
2021/01/02 09:36:01;;;;;;;14.18;10.18;;;18.70;37.80;;;;;;5050456;28;20040;-60
2021/01/02 09:38:27;;;;;;;10.48;7.68;;;18.70;37.50;;;;;;5053697;28;20098;-60
2021/01/02 09:40:53;;;;;;;6.95;6.00;;;18.70;37.40;;;;;;5061553;28;20070;-60
2021/01/02 09:43:19;;;;;;;8.95;6.60;;;18.70;37.20;;;;;;5057502;28;20430;-60
2021/01/02 09:45:45;;;;;;;9.68;5.88;;;18.70;37.20;;;;;;5046040;28;20025;-62
2021/01/02 09:48:12;;;;;;;11.40;7.47;;;18.70;37.20;;;;;;5052576;28;20025;-66
2021/01/02 09:50:41;;;;;;;12.63;7.28;;;18.80;37.40;;;;;;5049159;28;20013;-64
2021/01/02 09:53:08;;;;;;;9.77;7.15;;;18.80;37.30;;;;;;5052282;28;20017;-65
2021/01/02 09:55:35;;;;;;;9.05;7.72;;;18.80;37.30;;;;;;5054580;28;20377;-65
2021/01/02 09:58:01;;;;;;;10.82;7.15;;;18.80;37.30;;;;;;5053059;28;20035;-65
2021/01/02 10:00:27;;;;;;;11.23;7.68;;;18.80;37.20;;;;;;5039002;28;20060;-65
2021/01/02 10:02:54;;;;;;;9.80;7.82;;;18.90;37.20;;;;;;5053437;28;20083;-56
2021/01/02 10:05:22;;;;;;;8.52;6.72;;;18.90;37.20;;;;;;5049284;28;20078;-66
2021/01/02 10:07:48;;;;;;;11.65;6.88;;;18.90;37.20;;;;;;5049647;28;20575;-64
2021/01/02 10:10:15;;;;;;;9.10;6.07;;;18.90;37.10;;;;;;5051424;28;20555;-65
2021/01/02 10:12:46;;;;;;;9.85;6.40;;;19.00;37.00;;;;;;5058505;28;20029;-64
2021/01/02 10:15:13;;;;;;;;;;;19.00;36.90;;;;;;5058264;28;20025;-65
2021/01/02 10:17:40;;;;;;;6.22;3.85;;;19.00;37.00;;;;;;5054196;28;19921;-63
2021/01/02 10:20:07;;;;;;;4.10;3.65;;;19.10;36.10;;;;;;5043173;28;20027;-58
2021/01/02 10:22:33;;;;;;;7.47;3.35;;;19.10;36.10;;;;;;5055833;28;20108;-62
2021/01/02 10:24:59;;;;;;;4.50;2.60;;;19.10;35.80;;;;;;5056173;28;20025;-64
2021/01/02 10:27:27;;;;;;;3.05;2.20;;;19.10;35.70;;;;;;5048487;28;20029;-63
2021/01/02 10:29:54;;;;;;;3.20;2.60;;;19.10;35.60;;;;;;5059951;28;20028;-63
2021/01/02 10:32:23;;;;;;;7.45;5.93;;;19.10;35.50;;;;;;5044796;28;20033;-63
2021/01/02 10:34:49;;;;;;;8.43;6.82;;;19.10;35.30;;;;;;5048822;28;20471;-64
2021/01/02 10:37:17;;;;;;;11.38;9.73;;;19.10;35.10;;;;;;5055727;28;20375;-63
2021/01/02 10:39:44;;;;;;;7.20;6.18;;;19.10;35.10;;;;;;5058230;28;20041;-64
2021/01/02 10:42:11;;;;;;;4.97;4.43;;;19.20;34.90;;;;;;5059525;28;20025;-62
2021/01/02 10:44:42;;;;;;;4.68;3.63;;;19.20;34.70;;;;;;5052106;28;20463;-64
2021/01/02 10:47:07;;;;;;;16.65;13.57;;;19.20;34.60;;;;;;5054860;28;20033;-63
2021/01/02 10:49:33;;;;;;;19.25;14.38;;;19.20;34.60;;;;;;5053570;28;20029;-64
2021/01/02 10:51:59;;;;;;;14.43;10.40;;;19.30;35.20;;;;;;5059869;28;20033;-63
2021/01/02 10:54:25;;;;;;;9.93;8.88;;;19.30;34.40;;;;;;5055496;28;20025;-64
2021/01/02 10:56:53;;;;;;;10.32;8.75;;;19.40;34.50;;;;;;5056752;28;20024;-62
2021/01/02 10:59:21;;;;;;;6.90;5.35;;;19.40;34.30;;;;;;5050803;28;20028;-64
2021/01/02 11:01:50;;;;;;;6.53;5.60;;;19.40;34.00;;;;;;5054531;28;20024;-63
2021/01/02 11:04:17;;;;;;;4.88;3.28;;;19.50;34.00;;;;;;5052152;28;20087;-64
2021/01/02 11:06:45;;;;;;;5.47;4.75;;;19.60;33.90;;;;;;5059731;28;20028;-64
2021/01/02 11:09:14;;;;;;;5.35;4.13;;;19.60;33.70;;;;;;5055404;28;20036;-65
2021/01/02 11:11:41;;;;;;;4.63;3.40;;;19.70;33.50;;;;;;5057962;28;20505;-64
2021/01/02 11:14:10;;;;;;;4.35;3.55;;;19.80;33.50;;;;;;5057058;28;20086;-64
2021/01/02 11:16:42;;;;;;;6.70;5.28;;;20.00;33.50;;;;;;5057902;28;20057;-64
2021/01/02 11:19:20;;;;;;;7.22;4.85;;;20.30;32.90;;;;;;5057320;28;20024;-64
2021/01/02 11:21:48;;;;;;;4.65;2.60;;;20.90;32.20;;;;;;5059994;28;20085;-64
2021/01/02 11:24:17;;;;;;;4.82;2.95;;;21.50;31.50;;;;;;5055943;28;20036;-64
2021/01/02 11:26:44;;;;;;;2.75;2.20;;;22.20;30.70;;;;;;5055079;28;20025;-65
2021/01/02 11:29:11;;;;;;;2.97;2.60;;;22.80;29.90;;;;;;5053946;28;20044;-65
2021/01/02 11:31:37;;;;;;;4.82;1.83;;;23.50;29.50;;;;;;5049842;28;20044;-64
2021/01/02 11:34:03;;;;;;;4.35;1.80;;;24.20;28.90;;;;;;5056839;28;20147;-64
2021/01/02 11:36:29;;;;;;;2.13;1.42;;;24.90;28.60;;;;;;5055678;28;20375;-65
2021/01/02 11:38:55;;;;;;;1.42;1.33;;;25.50;27.90;;;;;;5053052;28;20029;-62
2021/01/02 11:41:32;;;;;;;1.65;1.50;;;26.10;27.60;;;;;;5056495;28;20035;-64
2021/01/02 11:43:58;;;;;;;3.80;1.60;;;26.80;26.90;;;;;;5048153;28;20491;-64
2021/01/02 11:46:33;;;;;;;2.28;1.25;;;27.50;26.30;;;;;;5056502;28;20025;-64
2021/01/02 11:48:59;;;;;;;3.00;1.35;;;28.10;25.80;;;;;;5052379;28;20471;-64
2021/01/02 11:51:25;;;;;;;3.47;1.38;;;28.70;25.80;;;;;;5052872;28;20036;-63
2021/01/02 11:53:52;;;;;;;1.83;1.33;;;29.20;25.30;;;;;;5052615;28;20544;-63
2021/01/02 11:56:22;;;;;;;6.95;1.50;;;29.70;24.90;;;;;;5052122;28;20086;-64
2021/01/02 11:58:54;;;;;;;;;;;30.10;24.40;;;;;;5053316;28;20037;-63
2021/01/02 12:01:21;;;;;;;14.68;9.13;;;30.60;26.80;;;;;;5052423;28;20011;-63
2021/01/02 12:03:48;;;;;;;7.47;6.25;;;31.10;24.40;;;;;;5056976;28;20025;-64
2021/01/02 12:06:15;;;;;;;14.68;11.15;;;31.50;24.00;;;;;;5056793;28;20047;-62
2021/01/02 12:08:41;;;;;;;25.88;20.58;;;31.90;23.80;;;;;;5053053;28;20100;-62
2021/01/02 12:11:09;;;;;;;13.25;10.57;;;32.20;23.60;;;;;;5059819;28;20103;-61
2021/01/02 12:13:39;;;;;;;8.85;6.53;;;32.50;23.40;;;;;;5060182;28;20091;-62
2021/01/02 12:16:05;;;;;;;;;;;32.80;22.90;;;;;;5061346;28;20025;-62
2021/01/02 12:18:31;;;;;;;4.68;4.28;;;33.20;25.10;;;;;;5058557;28;19991;-62
2021/01/02 12:20:57;;;;;;;5.97;5.38;;;33.50;22.80;;;;;;5062761;28;20028;-62
2021/01/02 12:23:23;;;;;;;3.00;2.60;;;33.70;22.70;;;;;;5062894;28;20040;-61
2021/01/02 12:25:49;;;;;;;4.90;2.95;;;33.90;22.50;;;;;;5056210;28;20025;-63
2021/01/02 12:28:15;;;;;;;4.10;1.85;;;34.00;22.40;;;;;;5063433;28;20031;-62
2021/01/02 12:30:41;;;;;;;2.83;2.60;;;34.20;22.20;;;;;;5052300;28;20382;-62
2021/01/02 12:33:07;;;;;;;2.47;2.08;;;34.40;22.10;;;;;;5055940;28;20036;-63
2021/01/02 12:35:33;;;;;;;5.78;4.88;;;34.60;22.10;;;;;;5056201;28;20037;-62
2021/01/02 12:37:59;;;;;;;7.18;5.68;;;34.70;22.00;;;;;;5056135;28;20052;-62
2021/01/02 12:40:25;;;;;;;5.75;5.25;;;34.90;21.90;;;;;;5054863;28;20055;-61
2021/01/02 12:42:51;;;;;;;4.45;4.05;;;35.00;21.80;;;;;;5055391;28;20032;-62
2021/01/02 12:45:17;;;;;;;4.15;3.72;;;35.10;21.80;;;;;;5052872;28;20021;-62
2021/01/02 12:47:43;;;;;;;3.50;3.13;;;35.10;21.60;;;;;;5048340;28;20101;-63
2021/01/02 12:50:12;;;;;;;5.95;3.60;;;35.00;22.10;;;;;;5056269;28;20099;-63
2021/01/02 12:52:38;;;;;;;4.43;2.03;;;34.90;21.50;;;;;;5058018;28;20065;-55
2021/01/02 12:55:06;;;;;;;1.95;1.73;;;34.70;21.60;;;;;;5055998;28;20032;-55
2021/01/02 12:57:32;;;;;;;4.47;1.40;;;33.90;21.30;;;;;;5051611;28;20033;-62
2021/01/02 12:59:58;;;;;;;3.65;1.77;;;32.80;21.50;;;;;;5058246;28;20029;-62